createdAt,value
2018-01-03T00:01:18.716Z,99547.20
2018-01-03T00:03:47.826Z,99542.42
2018-01-03T00:06:16.150Z,99526.22
2018-01-03T00:08:44.510Z,99522.30
2018-01-03T00:11:12.828Z,99515.47
2018-01-03T00:13:41.153Z,99512.03
2018-01-03T00:16:09.518Z,99505.06
2018-01-03T00:18:37.847Z,99490.81
2018-01-03T00:21:06.168Z,99479.08
2018-01-03T00:23:35.295Z,99466.36
2018-01-03T00:26:03.608Z,99460.58
2018-01-03T00:28:31.922Z,99447.17
2018-01-03T00:31:00.296Z,99444.69
2018-01-03T00:33:29.379Z,99442.80
2018-01-03T00:35:57.702Z,99439.72
2018-01-03T00:38:26.045Z,99430.11
2018-01-03T00:40:55.139Z,99414.66
2018-01-03T00:43:24.238Z,99403.62
2018-01-03T00:45:52.569Z,99407.86
2018-01-03T00:48:20.920Z,99407.58
2018-01-03T00:50:49.241Z,99393.08
2018-01-03T00:53:17.555Z,99379.69
2018-01-03T00:55:45.895Z,99357.02
2018-01-03T00:58:14.204Z,99338.13
2018-01-03T01:00:43.307Z,99344.27
2018-01-03T01:03:11.665Z,99332.95
2018-01-03T01:05:40.751Z,99330.09
2018-01-03T01:08:09.083Z,99320.56
2018-01-03T01:10:37.439Z,99307.23
2018-01-03T01:13:05.763Z,99297.61
2018-01-03T01:15:34.113Z,99300.29
2018-01-03T01:18:02.425Z,99285.34
2018-01-03T01:20:30.743Z,99284.05
2018-01-03T01:22:59.075Z,99278.24
2018-01-03T01:25:27.407Z,99264.92
2018-01-03T01:27:55.750Z,99261.45
2018-01-03T01:30:24.847Z,99249.38
2018-01-03T01:32:53.179Z,99231.55
2018-01-03T01:35:21.520Z,99219.12
2018-01-03T01:37:49.855Z,99202.75
2018-01-03T01:40:18.184Z,99192.84
2018-01-03T01:42:46.588Z,99185.52
2018-01-03T01:45:14.908Z,99180.88
2018-01-03T01:47:43.219Z,99172.55
2018-01-03T01:50:11.615Z,99157.82
2018-01-03T01:52:39.928Z,99138.13
2018-01-03T01:55:08.267Z,99124.64
2018-01-03T01:57:36.607Z,99108.02
2018-01-03T02:00:04.932Z,99103.59
2018-01-03T02:02:33.256Z,99095.65
2018-01-03T02:05:01.612Z,99085.24
2018-01-03T02:07:29.932Z,99078.52
2018-01-03T02:09:59.007Z,99060.28
2018-01-03T02:12:27.385Z,99049.72
2018-01-03T02:14:55.708Z,99024.66
2018-01-03T02:17:24.069Z,99022.22
2018-01-03T02:19:52.389Z,99007.30
2018-01-03T02:22:20.724Z,99001.51
2018-01-03T02:24:49.827Z,98994.37
2018-01-03T02:27:18.140Z,98987.45
2018-01-03T02:29:46.492Z,98985.25
2018-01-03T02:32:14.808Z,98975.66
2018-01-03T02:34:43.895Z,98959.69
2018-01-03T02:37:12.235Z,98952.03
2018-01-03T02:39:40.572Z,98947.42
2018-01-03T02:42:08.901Z,98931.78
2018-01-03T02:44:37.234Z,98920.19
2018-01-03T02:47:06.424Z,98903.34
2018-01-03T02:49:34.784Z,98898.36
2018-01-03T02:52:03.104Z,98891.08
2018-01-03T02:54:32.219Z,98885.59
2018-01-03T02:57:00.584Z,98866.91
2018-01-03T02:59:29.708Z,98874.21
2018-01-03T03:01:58.024Z,98868.02
2018-01-03T03:04:26.371Z,98857.89
2018-01-03T03:06:54.715Z,98838.64
2018-01-03T03:09:23.043Z,98827.25
2018-01-03T03:11:51.474Z,98819.85
2018-01-03T03:14:19.818Z,98808.51
2018-01-03T03:16:48.166Z,98786.70
2018-01-03T03:19:16.495Z,98774.14
2018-01-03T03:21:45.580Z,98763.78
2018-01-03T03:24:13.917Z,98742.48
2018-01-03T03:26:42.313Z,98725.92
2018-01-03T03:29:10.640Z,98710.19
2018-01-03T03:31:38.963Z,98683.05
2018-01-03T03:34:07.300Z,98670.00
2018-01-03T03:36:35.705Z,98653.28
2018-01-03T03:39:04.042Z,98633.27
2018-01-03T03:41:33.158Z,98621.81
2018-01-03T03:44:01.507Z,98606.20
2018-01-03T03:46:30.612Z,98599.16
2018-01-03T03:48:59.687Z,98581.46
2018-01-03T03:51:28.830Z,98572.88
2018-01-03T03:53:57.159Z,98550.55
2018-01-03T03:56:25.501Z,98542.23
2018-01-03T03:58:53.831Z,98532.11
2018-01-03T04:01:22.942Z,98510.58
2018-01-03T04:03:52.016Z,98488.65
2018-01-03T04:06:20.346Z,98486.63
2018-01-03T04:08:48.655Z,98491.47
2018-01-03T04:11:16.985Z,98477.85
2018-01-03T04:13:45.349Z,98450.27
2018-01-03T04:16:13.663Z,98449.05
2018-01-03T04:18:42.763Z,98454.03
2018-01-03T04:21:11.100Z,98441.15
2018-01-03T04:23:39.445Z,98418.03
2018-01-03T04:26:07.755Z,98393.30
2018-01-03T04:28:36.086Z,98380.66
2018-01-03T04:31:04.412Z,98356.80
2018-01-03T04:33:32.735Z,98373.76
2018-01-03T04:36:01.068Z,98376.83
2018-01-03T04:38:29.414Z,98378.77
2018-01-03T04:40:57.747Z,98363.56
2018-01-03T04:43:26.069Z,98344.18
2018-01-03T04:45:54.395Z,98332.63
2018-01-03T04:48:22.766Z,98323.05
2018-01-03T04:50:51.099Z,98324.15
2018-01-03T04:53:19.476Z,98325.50
2018-01-03T04:55:47.784Z,98309.27
2018-01-03T04:58:16.942Z,98292.02
2018-01-03T05:00:45.277Z,98273.27
2018-01-03T05:03:13.685Z,98271.06
2018-01-03T05:05:42.024Z,98246.86
2018-01-03T05:08:10.360Z,98231.14
2018-01-03T05:10:38.735Z,98228.45
2018-01-03T05:13:07.068Z,98199.38
2018-01-03T05:15:35.400Z,98185.78
2018-01-03T05:18:03.749Z,98139.50
2018-01-03T05:20:32.097Z,98116.75
2018-01-03T05:23:00.427Z,98086.50
2018-01-03T05:25:28.761Z,98066.55
2018-01-03T05:27:57.088Z,98049.73
2018-01-03T05:30:25.426Z,98044.63
2018-01-03T05:32:53.739Z,98027.80
2018-01-03T05:35:22.055Z,98021.20
2018-01-03T05:37:50.423Z,98010.18
2018-01-03T05:40:19.553Z,98003.18
2018-01-03T05:42:47.875Z,97985.70
2018-01-03T05:45:16.227Z,97963.64
2018-01-03T05:47:44.562Z,97960.16
2018-01-03T05:50:12.904Z,97946.45
2018-01-03T05:52:41.223Z,97934.36
2018-01-03T05:55:09.603Z,97924.95
2018-01-03T05:57:37.910Z,97910.68
2018-01-03T06:00:06.240Z,97883.52
2018-01-03T06:02:35.361Z,97878.28
2018-01-03T06:05:03.683Z,97878.70
2018-01-03T06:07:32.024Z,97871.56
2018-01-03T06:10:00.343Z,97866.59
2018-01-03T06:12:28.686Z,97865.40
2018-01-03T06:14:57.020Z,97870.62
2018-01-03T06:17:26.135Z,97862.42
2018-01-03T06:19:54.471Z,97850.86
2018-01-03T06:22:22.783Z,97851.53
2018-01-03T06:24:51.860Z,97846.97
2018-01-03T06:27:20.191Z,97838.21
2018-01-03T06:29:48.507Z,97835.41
2018-01-03T06:32:16.840Z,97824.10
2018-01-03T06:34:45.148Z,97803.12
2018-01-03T06:37:13.494Z,97810.24
2018-01-03T06:39:41.815Z,97800.58
2018-01-03T06:42:10.158Z,97790.22
2018-01-03T06:44:38.498Z,97817.26
2018-01-03T06:47:07.588Z,97809.45
2018-01-03T06:49:35.932Z,97810.11
2018-01-03T06:52:04.256Z,97816.03
2018-01-03T06:54:32.586Z,97821.14
2018-01-03T06:57:00.930Z,97835.55
2018-01-03T06:59:29.242Z,97813.48
2018-01-03T07:01:57.598Z,97813.08
2018-01-03T07:04:26.034Z,97831.38
2018-01-03T07:06:55.114Z,97823.28
2018-01-03T07:09:23.465Z,97810.51
2018-01-03T07:11:51.788Z,97812.41
2018-01-03T07:14:20.882Z,97795.43
2018-01-03T07:16:49.963Z,97735.17
2018-01-03T07:19:19.067Z,97745.09
2018-01-03T07:21:48.195Z,97711.41
2018-01-03T07:24:16.523Z,97661.72
2018-01-03T07:26:44.893Z,97621.17
2018-01-03T07:29:13.236Z,97577.83
2018-01-03T07:31:41.543Z,97541.25
2018-01-03T07:34:09.882Z,97528.96
2018-01-03T07:36:38.220Z,97515.89
2018-01-03T07:39:07.309Z,97488.83
2018-01-03T07:41:35.631Z,97459.03
2018-01-03T07:44:03.961Z,97481.68
2018-01-03T07:46:32.286Z,97534.13
2018-01-03T07:49:00.607Z,97613.00
2018-01-03T07:51:28.950Z,97595.66
2018-01-03T07:53:57.273Z,97617.10
2018-01-03T07:56:25.675Z,97605.49
2018-01-03T07:58:54.759Z,97594.17
2018-01-03T08:01:23.099Z,97595.09
2018-01-03T08:03:51.419Z,97604.69
2018-01-03T08:06:20.507Z,97608.34
2018-01-03T08:08:48.843Z,97607.77
2018-01-03T08:11:17.156Z,97591.46
2018-01-03T08:13:45.498Z,97578.55
2018-01-03T08:16:13.819Z,97570.18
2018-01-03T08:18:42.127Z,97558.98
2018-01-03T08:21:10.784Z,97546.46
2018-01-03T08:23:39.087Z,97549.95
2018-01-03T08:26:07.414Z,97542.34
2018-01-03T08:28:35.769Z,97546.41
2018-01-03T08:31:04.082Z,97546.77
2018-01-03T08:33:32.399Z,97559.20
2018-01-03T08:36:00.734Z,97546.34
2018-01-03T08:38:29.085Z,97525.72
2018-01-03T08:40:57.520Z,97535.58
2018-01-03T08:43:26.628Z,97552.14
2018-01-03T08:45:55.558Z,97557.00
2018-01-03T08:48:23.895Z,97552.80
2018-01-03T08:50:52.239Z,97556.41
2018-01-03T08:53:20.568Z,97543.62
2018-01-03T08:55:48.888Z,97538.50
2018-01-03T08:58:17.223Z,97535.62
2018-01-03T09:00:45.607Z,97537.47
2018-01-03T09:03:13.918Z,97537.35
2018-01-03T09:05:42.243Z,97533.06
2018-01-03T09:08:10.574Z,97545.12
2018-01-03T09:10:38.903Z,97559.66
2018-01-03T09:13:07.224Z,97565.10
2018-01-03T09:15:35.574Z,97576.40
2018-01-03T09:18:03.899Z,97566.14
2018-01-03T09:20:32.226Z,97571.14
2018-01-03T09:23:00.582Z,97562.09
2018-01-03T09:25:28.896Z,97552.65
2018-01-03T09:27:57.211Z,97565.30
2018-01-03T09:30:25.536Z,97576.83
2018-01-03T09:32:53.866Z,97579.98
2018-01-03T09:35:22.174Z,97579.73
2018-01-03T09:37:50.491Z,97583.50
2018-01-03T09:40:18.835Z,97588.93
2018-01-03T09:42:47.160Z,97582.15
2018-01-03T09:45:15.471Z,97591.87
2018-01-03T09:47:44.565Z,97587.41
2018-01-03T09:50:13.672Z,97584.55
2018-01-03T09:52:41.983Z,97597.20
2018-01-03T09:55:10.283Z,97608.73
2018-01-03T09:57:38.614Z,97616.28
2018-01-03T10:00:06.941Z,97615.48
2018-01-03T10:02:35.282Z,97616.16
2018-01-03T10:05:03.603Z,97606.69
2018-01-03T10:07:31.939Z,97607.22
2018-01-03T10:10:00.243Z,97612.08
2018-01-03T10:12:30.137Z,97591.59
2018-01-03T10:14:58.488Z,97606.84
2018-01-03T10:17:26.808Z,97598.66
2018-01-03T10:19:55.131Z,97596.64
2018-01-03T10:22:24.228Z,97608.77
2018-01-03T10:24:53.318Z,97610.91
2018-01-03T10:27:21.683Z,97615.57
2018-01-03T10:29:49.986Z,97609.84
2018-01-03T10:32:18.307Z,97612.47
2018-01-03T10:34:46.644Z,97612.91
2018-01-03T10:37:14.963Z,97614.98
2018-01-03T10:39:43.275Z,97616.89
2018-01-03T10:42:11.606Z,97632.27
2018-01-03T10:44:39.932Z,97637.59
2018-01-03T10:47:09.004Z,97643.72
2018-01-03T10:49:38.272Z,97652.52
2018-01-03T10:52:06.595Z,97662.03
2018-01-03T10:54:34.903Z,97659.05
2018-01-03T10:57:03.254Z,97676.50
2018-01-03T10:59:32.343Z,97684.81
2018-01-03T11:02:00.663Z,97664.30
2018-01-03T11:04:28.998Z,97679.06
2018-01-03T11:06:57.324Z,97689.95
2018-01-03T11:09:25.661Z,97692.06
2018-01-03T11:11:53.995Z,97677.40
2018-01-03T11:14:22.313Z,97676.33
2018-01-03T11:16:50.647Z,97666.81
2018-01-03T11:19:18.970Z,97677.34
2018-01-03T11:21:47.294Z,97688.98
2018-01-03T11:24:15.658Z,97692.47
2018-01-03T11:26:43.979Z,97701.11
2018-01-03T11:29:12.306Z,97712.97
2018-01-03T11:31:40.663Z,97707.40
2018-01-03T11:34:09.794Z,97696.16
2018-01-03T11:36:38.111Z,97711.64
2018-01-03T11:39:06.426Z,97718.67
2018-01-03T11:41:34.815Z,97726.97
2018-01-03T11:44:03.933Z,97730.02
2018-01-03T11:46:32.261Z,97730.09
2018-01-03T11:49:00.596Z,97728.19
2018-01-03T11:51:28.938Z,97736.31
2018-01-03T11:53:58.004Z,97738.12
2018-01-03T11:56:26.351Z,97742.31
2018-01-03T11:58:54.658Z,97738.08
2018-01-03T12:01:22.973Z,97743.34
2018-01-03T12:03:51.364Z,97753.08
2018-01-03T12:06:19.690Z,97754.33
2018-01-03T12:08:47.999Z,97766.06
2018-01-03T12:11:17.089Z,97759.85
2018-01-03T12:13:46.179Z,97759.41
2018-01-03T12:16:15.252Z,97773.44
2018-01-03T12:18:43.596Z,97775.17
2018-01-03T12:21:11.960Z,97771.32
2018-01-03T12:23:40.282Z,97777.93
2018-01-03T12:26:08.603Z,97786.38
2018-01-03T12:28:36.968Z,97779.52
2018-01-03T12:31:06.039Z,97781.69
2018-01-03T12:33:34.348Z,97785.16
2018-01-03T12:36:03.464Z,97784.02
2018-01-03T12:38:31.816Z,97777.41
2018-01-03T12:41:00.897Z,97772.70
2018-01-03T12:43:29.228Z,97777.04
2018-01-03T12:45:57.531Z,97780.39
2018-01-03T12:48:25.896Z,97777.32
2018-01-03T12:50:54.209Z,97776.45
2018-01-03T12:53:22.520Z,97778.77
2018-01-03T12:55:50.863Z,97771.94
2018-01-03T12:58:19.180Z,97761.36
2018-01-03T13:00:47.500Z,97770.34
2018-01-03T13:03:15.855Z,97769.52
2018-01-03T13:05:44.154Z,97767.79
2018-01-03T13:08:12.468Z,97772.09
2018-01-03T13:10:41.607Z,97771.89
2018-01-03T13:13:09.910Z,97782.22
2018-01-03T13:15:38.227Z,97783.11
2018-01-03T13:18:06.630Z,97781.00
2018-01-03T13:20:34.959Z,97777.06
2018-01-03T13:23:03.312Z,97776.36
2018-01-03T13:25:33.140Z,97783.13
2018-01-03T13:28:01.459Z,97775.56
2018-01-03T13:30:29.788Z,97786.14
2018-01-03T13:32:58.115Z,97801.57
2018-01-03T13:35:26.454Z,97795.27
2018-01-03T13:37:54.772Z,97798.13
2018-01-03T13:40:23.087Z,97800.40
2018-01-03T13:42:51.431Z,97820.31
2018-01-03T13:45:19.750Z,97810.88
2018-01-03T13:47:48.118Z,97816.81
2018-01-03T13:50:16.428Z,97798.31
2018-01-03T13:52:45.516Z,97818.92
2018-01-03T13:55:13.844Z,97802.58
2018-01-03T13:57:42.205Z,97811.41
2018-01-03T14:00:10.523Z,97822.66
2018-01-03T14:02:38.847Z,97813.05
2018-01-03T14:05:07.950Z,97824.35
2018-01-03T14:07:36.275Z,97831.30
2018-01-03T14:10:04.601Z,97820.99
2018-01-03T14:12:33.700Z,97814.47
2018-01-03T14:15:02.782Z,97837.48
2018-01-03T14:17:31.448Z,97823.00
2018-01-03T14:19:59.806Z,97851.70
2018-01-03T14:22:28.135Z,97849.84
2018-01-03T14:24:57.239Z,97854.64
2018-01-03T14:27:25.559Z,97853.64
2018-01-03T14:29:53.862Z,97860.59
2018-01-03T14:32:22.212Z,97868.50
2018-01-03T14:34:50.524Z,97860.47
2018-01-03T14:37:18.844Z,97869.31
2018-01-03T14:39:47.186Z,97864.41
2018-01-03T14:42:16.256Z,97874.96
2018-01-03T14:44:44.615Z,97883.31
2018-01-03T14:47:13.028Z,97880.36
2018-01-03T14:49:41.656Z,97868.20
2018-01-03T14:52:10.004Z,97873.77
2018-01-03T14:54:39.100Z,97872.13
2018-01-03T14:57:09.024Z,97877.19
2018-01-03T14:59:37.371Z,97875.55
2018-01-03T15:02:05.692Z,97884.33
2018-01-03T15:04:34.059Z,97894.62
2018-01-03T15:07:02.396Z,97893.53
2018-01-03T15:09:30.752Z,97894.35
2018-01-03T15:11:59.089Z,97890.47
2018-01-03T15:14:28.198Z,97897.86
2018-01-03T15:16:56.657Z,97912.04
2018-01-03T15:19:25.775Z,97918.31
2018-01-03T15:21:54.083Z,97921.97
2018-01-03T15:24:22.455Z,97912.55
2018-01-03T15:26:50.764Z,97918.71
2018-01-03T15:29:19.105Z,97909.77
2018-01-03T15:31:47.431Z,97918.80
2018-01-03T15:34:15.766Z,97929.66
2018-01-03T15:36:44.099Z,97927.93
2018-01-03T15:39:13.191Z,97935.22
2018-01-03T15:41:42.303Z,97930.23
2018-01-03T15:44:10.608Z,97930.23
2018-01-03T15:46:38.925Z,97943.08
2018-01-03T15:49:07.274Z,97947.14
2018-01-03T15:51:35.592Z,97956.58
2018-01-03T15:54:03.922Z,97942.69
2018-01-03T15:56:32.265Z,97948.69
2018-01-03T15:59:01.699Z,97955.42
2018-01-03T16:01:30.027Z,97939.90
2018-01-03T16:03:58.347Z,97954.19
2018-01-03T16:06:26.671Z,97951.92
2018-01-03T16:08:54.975Z,97961.06
2018-01-03T16:11:23.300Z,97962.97
2018-01-03T16:13:51.616Z,97962.42
2018-01-03T16:16:19.941Z,97962.77
2018-01-03T16:18:48.289Z,97954.17
2018-01-03T16:21:17.368Z,97962.91
2018-01-03T16:23:45.683Z,97956.72
2018-01-03T16:26:14.033Z,97945.88
2018-01-03T16:28:42.339Z,97959.77
2018-01-03T16:31:11.492Z,97977.74
2018-01-03T16:33:39.826Z,97972.59
2018-01-03T16:36:08.143Z,97963.27
2018-01-03T16:38:36.462Z,97994.83
2018-01-03T16:41:04.786Z,97990.48
2018-01-03T16:43:33.128Z,97991.19
2018-01-03T16:46:01.448Z,97992.68
2018-01-03T16:48:29.796Z,98004.83
2018-01-03T16:50:58.121Z,98004.98
2018-01-03T16:53:27.212Z,98007.92
2018-01-03T16:55:55.550Z,98012.13
2018-01-03T16:58:23.879Z,98020.22
2018-01-03T17:00:52.997Z,98025.22
2018-01-03T17:03:21.352Z,98043.16
2018-01-03T17:05:49.636Z,98043.95
2018-01-03T17:08:18.739Z,98053.00
2018-01-03T17:10:47.058Z,98067.14
2018-01-03T17:13:15.368Z,98061.89
2018-01-03T17:15:43.795Z,98075.28
2018-01-03T17:18:12.126Z,98065.73
2018-01-03T17:20:41.228Z,98066.67
2018-01-03T17:23:10.328Z,98073.70
2018-01-03T17:25:39.407Z,98071.81
2018-01-03T17:28:07.736Z,98068.56
2018-01-03T17:30:36.055Z,98061.68
2018-01-03T17:33:04.407Z,98072.50
2018-01-03T17:35:32.758Z,98073.84
2018-01-03T17:38:01.071Z,98057.92
2018-01-03T17:40:29.406Z,98056.17
2018-01-03T17:42:57.788Z,98061.97
2018-01-03T17:45:26.160Z,98034.70
2018-01-03T17:47:54.497Z,98053.59
2018-01-03T17:50:22.819Z,98048.48
2018-01-03T17:52:51.176Z,98057.27
2018-01-03T17:55:21.443Z,98060.36
2018-01-03T17:57:49.863Z,98056.31
2018-01-03T18:00:18.171Z,98078.98
2018-01-03T18:02:47.343Z,98074.79
2018-01-03T18:05:15.675Z,98068.08
2018-01-03T18:07:43.991Z,98072.52
2018-01-03T18:10:12.343Z,98073.18
2018-01-03T18:12:40.671Z,98081.56
2018-01-03T18:15:09.758Z,98073.46
2018-01-03T18:17:38.850Z,98079.94
2018-01-03T18:20:07.940Z,98100.04
2018-01-03T18:22:36.281Z,98095.30
2018-01-03T18:25:04.595Z,98105.14
2018-01-03T18:27:33.700Z,98104.60
2018-01-03T18:30:02.808Z,98109.33
2018-01-03T18:32:31.127Z,98116.73
2018-01-03T18:34:59.439Z,98123.19
2018-01-03T18:37:27.808Z,98115.53
2018-01-03T18:39:56.130Z,98107.69
2018-01-03T18:42:24.440Z,98102.31
2018-01-03T18:44:53.544Z,98105.29
2018-01-03T18:47:21.875Z,98107.95
2018-01-03T18:49:50.185Z,98108.49
2018-01-03T18:52:18.524Z,98104.19
2018-01-03T18:54:47.604Z,98114.04
2018-01-03T18:57:16.718Z,98102.16
2018-01-03T18:59:45.832Z,98109.17
2018-01-03T19:02:14.147Z,98121.58
2018-01-03T19:04:42.479Z,98126.59
2018-01-03T19:07:10.875Z,98111.89
2018-01-03T19:09:39.935Z,98120.38
2018-01-03T19:12:09.039Z,98122.80
2018-01-03T19:14:37.399Z,98113.77
2018-01-03T19:17:05.712Z,98128.73
2018-01-03T19:19:34.028Z,98119.85
2018-01-03T19:22:02.385Z,98126.98
2018-01-03T19:24:30.719Z,98130.74
2018-01-03T19:26:59.836Z,98123.61
2018-01-03T19:29:28.168Z,98126.57
2018-01-03T19:31:56.840Z,98128.19
2018-01-03T19:34:25.166Z,98133.04
2018-01-03T19:36:53.550Z,98125.47
2018-01-03T19:39:21.907Z,98139.76
2018-01-03T19:41:51.017Z,98131.13
2018-01-03T19:44:20.113Z,98133.40
2018-01-03T19:46:48.455Z,98137.16
2018-01-03T19:49:16.781Z,98121.33
2018-01-03T19:51:45.116Z,98129.81
2018-01-03T19:54:13.453Z,98125.22
2018-01-03T19:56:41.771Z,98119.38
2018-01-03T19:59:10.133Z,98125.63
2018-01-03T20:01:38.488Z,98118.77
2018-01-03T20:04:06.808Z,98129.17
2018-01-03T20:06:35.143Z,98139.93
2018-01-03T20:09:04.365Z,98127.78
2018-01-03T20:11:32.688Z,98131.32
2018-01-03T20:14:01.027Z,98134.83
2018-01-03T20:16:29.368Z,98126.83
2018-01-03T20:18:57.704Z,98129.42
2018-01-03T20:21:26.804Z,98125.98
2018-01-03T20:23:55.918Z,98138.42
2018-01-03T20:26:24.247Z,98137.44
2018-01-03T20:28:52.568Z,98146.73
2018-01-03T20:31:21.668Z,98147.78
2018-01-03T20:33:50.758Z,98141.97
2018-01-03T20:36:19.905Z,98147.52
2018-01-03T20:38:48.567Z,98155.08
2018-01-03T20:41:16.876Z,98159.53
2018-01-03T20:43:45.199Z,98150.37
2018-01-03T20:46:13.570Z,98157.08
2018-01-03T20:48:42.664Z,98142.67
2018-01-03T20:51:11.768Z,98156.47
2018-01-03T20:53:41.688Z,98165.98
2018-01-03T20:56:10.005Z,98162.38
2018-01-03T20:58:38.320Z,98178.98
2018-01-03T21:01:07.459Z,98191.63
2018-01-03T21:03:35.815Z,98189.08
2018-01-03T21:06:04.926Z,98189.98
2018-01-03T21:08:33.239Z,98181.98
2018-01-03T21:11:01.553Z,98192.13
2018-01-03T21:13:30.428Z,98195.14
2018-01-03T21:15:58.751Z,98198.50
2018-01-03T21:18:27.074Z,98203.64
2018-01-03T21:20:55.435Z,98211.50
2018-01-03T21:23:23.761Z,98222.05
2018-01-03T21:25:52.895Z,98211.24
2018-01-03T21:28:21.216Z,98223.70
2018-01-03T21:30:49.554Z,98230.30
2018-01-03T21:33:17.892Z,98233.00
2018-01-03T21:35:46.976Z,98227.09
2018-01-03T21:38:16.107Z,98234.61
2018-01-03T21:40:44.423Z,98223.88
2018-01-03T21:43:12.735Z,98228.45
2018-01-03T21:45:41.844Z,98223.99
2018-01-03T21:48:10.172Z,98226.55
2018-01-03T21:50:38.518Z,98226.15
2018-01-03T21:53:06.839Z,98237.64
2018-01-03T21:55:35.167Z,98242.75
2018-01-03T21:58:03.523Z,98254.24
2018-01-03T22:00:32.606Z,98257.34
2018-01-03T22:03:01.715Z,98259.27
2018-01-03T22:05:30.795Z,98257.34
2018-01-03T22:07:59.920Z,98263.18
2018-01-03T22:10:29.108Z,98267.89
2018-01-03T22:12:57.420Z,98270.59
2018-01-03T22:15:25.789Z,98269.64
2018-01-03T22:17:54.115Z,98272.48
2018-01-03T22:20:22.446Z,98276.27
2018-01-03T22:22:50.928Z,98277.77
2018-01-03T22:25:19.245Z,98272.50
2018-01-03T22:27:47.586Z,98259.92
2018-01-03T22:30:15.978Z,98278.58
2018-01-03T22:32:44.304Z,98273.03
2018-01-03T22:35:13.387Z,98278.41
2018-01-03T22:37:42.540Z,98284.88
2018-01-03T22:40:10.864Z,98280.30
2018-01-03T22:42:39.986Z,98285.56
2018-01-03T22:45:08.307Z,98299.20
2018-01-03T22:47:36.643Z,98311.76
2018-01-03T22:50:05.003Z,98305.03
2018-01-03T22:52:34.149Z,98304.90
2018-01-03T22:55:02.551Z,98312.05
2018-01-03T22:57:30.906Z,98315.14
2018-01-03T22:59:59.260Z,98325.14
2018-01-03T23:02:27.615Z,98310.16
2018-01-03T23:04:56.725Z,98320.42
2018-01-03T23:07:25.042Z,98314.73
2018-01-03T23:09:53.392Z,98325.53
2018-01-03T23:12:21.823Z,98331.08
2018-01-03T23:14:50.158Z,98330.81
2018-01-03T23:17:18.527Z,98333.63
2018-01-03T23:19:46.862Z,98330.82
2018-01-03T23:22:15.206Z,98332.16
2018-01-03T23:24:43.546Z,98325.40
2018-01-03T23:27:11.864Z,98343.47
2018-01-03T23:29:40.217Z,98346.19
2018-01-03T23:32:08.545Z,98348.06
2018-01-03T23:34:36.909Z,98352.41
2018-01-03T23:37:05.255Z,98350.25
2018-01-03T23:39:33.586Z,98344.44
2018-01-03T23:42:01.955Z,98354.84
2018-01-03T23:44:30.300Z,98356.73
2018-01-03T23:46:58.656Z,98349.17
2018-01-03T23:49:27.004Z,98351.07
2018-01-03T23:51:56.104Z,98356.46
2018-01-03T23:54:25.198Z,98373.48
2018-01-03T23:56:54.341Z,98372.13
2018-01-03T23:59:22.664Z,98366.45
